createdAt,value
2018-09-10T01:11:55.415Z,45.60
2018-09-10T01:18:18.374Z,82.60
2018-09-10T01:21:13.597Z,56.40
2018-09-10T01:26:55.828Z,84.40
2018-09-10T01:39:29.984Z,50.40
2018-09-10T01:43:36.746Z,46.10
2018-09-10T01:49:11.727Z,47.10
2018-09-10T02:13:58.042Z,39.80
2018-09-10T02:18:49.060Z,38.00
2018-09-10T02:21:31.306Z,39.00
2018-09-10T02:27:32.980Z,40.70
2018-09-10T02:36:37.313Z,39.60
2018-09-10T02:41:49.894Z,38.90
2018-09-10T02:50:47.661Z,25.40
2018-09-10T03:03:02.329Z,21.40
2018-09-10T03:07:33.182Z,24.80
2018-09-10T03:10:23.199Z,28.70
2018-09-10T03:19:30.724Z,32.60
2018-09-10T03:22:00.738Z,35.30
2018-09-10T03:24:30.740Z,38.00
2018-09-10T03:27:00.918Z,41.80
2018-09-10T03:29:30.906Z,42.20
2018-09-10T03:32:01.090Z,41.00
2018-09-10T03:37:42.208Z,37.60
2018-09-10T03:40:13.011Z,31.60
2018-09-10T03:42:44.130Z,25.50
2018-09-10T03:45:15.207Z,20.00
2018-09-10T03:47:45.587Z,20.00
2018-09-10T03:50:16.231Z,18.60
2018-09-10T03:52:47.170Z,21.40
2018-09-10T03:55:17.525Z,24.10
2018-09-10T03:57:48.218Z,26.20
2018-09-10T04:00:18.665Z,27.30
2018-09-10T04:02:49.299Z,27.60
2018-09-10T04:05:19.733Z,28.60
2018-09-10T04:07:50.130Z,30.20
2018-09-10T04:10:21.083Z,31.60
2018-09-10T04:19:14.090Z,39.60
2018-09-10T04:21:44.490Z,40.80
2018-09-10T04:24:14.482Z,36.30
2018-09-10T04:26:45.158Z,32.70
2018-09-10T04:29:15.455Z,30.50
2018-09-10T04:31:45.972Z,30.80
2018-09-10T04:34:17.327Z,29.30
2018-09-10T04:36:47.350Z,30.10
2018-09-10T04:39:17.355Z,33.00
2018-09-10T04:41:47.653Z,33.80
2018-09-10T04:44:17.828Z,35.00
2018-09-10T04:46:48.007Z,31.20
2018-09-10T04:49:18.198Z,29.50
2018-09-10T04:51:48.234Z,32.50
2018-09-10T04:54:18.558Z,28.70
2018-09-10T04:56:48.883Z,25.30
2018-09-10T04:59:19.142Z,23.00
2018-09-10T05:01:49.122Z,28.10
2018-09-10T05:04:19.163Z,25.10
2018-09-10T05:06:49.971Z,26.90
2018-09-10T05:09:20.335Z,24.90
2018-09-10T05:11:50.973Z,21.70
2018-09-10T05:14:21.199Z,20.50
2018-09-10T05:16:51.698Z,15.50
2018-09-10T05:19:22.445Z,15.40
2018-09-10T05:21:52.453Z,15.60
2018-09-10T05:24:22.933Z,12.50
2018-09-10T05:26:53.243Z,10.90
2018-09-10T05:29:23.606Z,7.40
2018-09-10T05:31:54.045Z,2.90
2018-09-10T05:34:24.281Z,1.40
2018-09-10T05:36:54.299Z,2.80
2018-09-10T05:39:24.287Z,2.90
2018-09-10T05:41:54.298Z,2.70
2018-09-10T05:44:24.336Z,2.80
2018-09-10T05:46:54.479Z,3.30
2018-09-10T05:49:24.756Z,2.90
2018-09-10T05:51:55.076Z,6.40
2018-09-10T05:54:25.435Z,4.80
2018-09-10T05:56:55.424Z,3.60
2018-09-10T05:59:25.856Z,3.80
2018-09-10T06:01:56.190Z,4.80
2018-09-10T06:04:26.177Z,1.10
2018-09-10T06:06:56.163Z,1.00
2018-09-10T06:09:26.155Z,1.00
2018-09-10T06:11:56.086Z,1.00
2018-09-10T06:14:36.622Z,1.00
2018-09-10T06:17:07.015Z,1.00
2018-09-10T06:19:55.578Z,1.00
2018-09-10T06:25:30.979Z,1.00
2018-09-10T06:28:01.635Z,1.00
2018-09-10T06:30:32.503Z,1.00
2018-09-10T06:33:17.362Z,1.00
2018-09-10T06:36:13.323Z,1.00
2018-09-10T06:44:21.079Z,1.00
2018-09-10T06:46:51.574Z,1.00
2018-09-10T06:52:27.076Z,1.00
2018-09-10T06:55:09.714Z,1.00
2018-09-10T06:57:40.711Z,1.00
2018-09-10T07:00:11.343Z,1.00
2018-09-10T07:02:42.192Z,1.00
2018-09-10T07:05:13.402Z,1.00
2018-09-10T07:07:44.267Z,1.00
2018-09-10T07:10:14.990Z,1.00
2018-09-10T07:12:45.561Z,1.00
2018-09-10T07:15:16.334Z,1.00
2018-09-10T07:17:47.359Z,1.00
2018-09-10T07:20:18.087Z,1.00
2018-09-10T07:22:48.991Z,1.00
2018-09-10T07:25:19.290Z,1.00
2018-09-10T07:27:50.141Z,1.00
2018-09-10T07:30:20.777Z,1.00
2018-09-10T07:32:51.833Z,1.00
2018-09-10T07:35:22.763Z,1.00
2018-09-10T07:37:53.311Z,1.00
2018-09-10T07:40:24.353Z,1.00
2018-09-10T07:42:55.202Z,1.00
2018-09-10T07:45:25.751Z,1.00
2018-09-10T07:47:56.694Z,1.00
2018-09-10T07:50:27.353Z,1.00
2018-09-10T07:52:59.502Z,1.00
2018-09-10T07:55:30.148Z,1.00
2018-09-10T07:58:00.819Z,1.00
2018-09-10T08:00:31.511Z,1.00
2018-09-10T08:03:02.393Z,1.00
2018-09-10T08:05:33.646Z,1.00
2018-09-10T08:08:04.624Z,1.00
2018-09-10T08:10:35.242Z,1.00
2018-09-10T08:13:06.417Z,1.00
2018-09-10T08:15:37.019Z,1.00
2018-09-10T08:18:07.755Z,1.00
2018-09-10T08:20:38.418Z,1.00
2018-09-10T08:23:08.980Z,1.00
2018-09-10T08:25:39.559Z,1.00
2018-09-10T08:28:10.386Z,1.00
2018-09-10T08:30:41.583Z,1.00
2018-09-10T08:33:12.138Z,1.00
2018-09-10T08:35:42.678Z,1.00
2018-09-10T08:38:13.333Z,1.00
2018-09-10T08:40:43.822Z,1.00
2018-09-10T08:43:14.669Z,1.00
2018-09-10T08:45:45.710Z,1.00
2018-09-10T08:48:16.632Z,1.00
2018-09-10T08:50:47.377Z,1.00
2018-09-10T08:53:18.119Z,1.00
2018-09-10T08:55:48.881Z,1.00
2018-09-10T08:58:19.654Z,1.00
2018-09-10T09:00:50.167Z,1.00
2018-09-10T09:03:20.685Z,1.00
2018-09-10T09:05:51.240Z,1.00
2018-09-10T09:08:21.953Z,1.00
2018-09-10T09:10:52.939Z,1.00
2018-09-10T09:13:23.677Z,1.00
2018-09-10T09:15:54.378Z,1.00
2018-09-10T09:18:25.028Z,1.00
2018-09-10T09:20:55.518Z,1.00
2018-09-10T09:23:26.246Z,1.00
2018-09-10T09:25:57.307Z,1.00
2018-09-10T09:28:27.801Z,1.00
2018-09-10T09:30:58.303Z,1.00
2018-09-10T09:33:29.389Z,1.00
2018-09-10T09:36:05.064Z,1.00
2018-09-10T09:38:41.009Z,1.00
2018-09-10T09:41:17.084Z,1.00
2018-09-10T09:43:52.961Z,1.00
2018-09-10T11:21:21.206Z,1.00
2018-09-10T11:23:51.780Z,1.00
2018-09-10T11:26:50.538Z,1.00
2018-09-10T11:29:20.844Z,1.00
2018-09-10T11:32:08.255Z,1.00
